Terminal Aerodrome Forecast
Issued by NWS

Home | Current Version | Previous Version | Graphics & Text | Print | Product List | Glossary On
Versions: 1 2 3 4 5 6 7 8 9 10 11 12 13
000
FTUS43 KGRB 202228 AAA
TAFRHI
TAF AMD
KRHI 202228Z 2022/2118 13012KT 3SM RA SCT015 OVC028 WS020/20045KT
     FM210300 18008KT 4SM SHRA BR OVC003 WS020/22045KT
     FM210600 22009KT 3SM BR BKN005 PROB30 2107/2109 2SM -SHRA BR
      OVC003
     FM210900 24006KT 3SM BR BKN004
     FM211300 29005KT 5SM BR BKN007
     FM211600 27008G13KT P6SM SCT250=

USA.gov is the U.S. government's official web portal to all federal, state and local government web resources and services.